sensor_id;sensor_type;location;lat;lon;timestamp;pressure;altitude;pressure_sealevel;temperature
7389;BMP180;3735;50.136;11.062;2023-08-20T00:01:05;98502.00;;;23.30
7389;BMP180;3735;50.136;11.062;2023-08-20T00:03:31;98507.00;;;23.20
7389;BMP180;3735;50.136;11.062;2023-08-20T00:05:57;98502.00;;;23.20
7389;BMP180;3735;50.136;11.062;2023-08-20T00:08:23;98498.00;;;23.20
7389;BMP180;3735;50.136;11.062;2023-08-20T00:10:49;98499.00;;;23.30
7389;BMP180;3735;50.136;11.062;2023-08-20T00:13:14;98497.00;;;23.20
7389;BMP180;3735;50.136;11.062;2023-08-20T00:15:40;98493.00;;;23.20
7389;BMP180;3735;50.136;11.062;2023-08-20T00:18:07;98498.00;;;23.10
7389;BMP180;3735;50.136;11.062;2023-08-20T00:20:33;98503.00;;;23.00
7389;BMP180;3735;50.136;11.062;2023-08-20T00:22:59;98500.00;;;23.00
7389;BMP180;3735;50.136;11.062;2023-08-20T00:25:25;98509.00;;;23.00
7389;BMP180;3735;50.136;11.062;2023-08-20T00:27:51;98510.00;;;23.00
7389;BMP180;3735;50.136;11.062;2023-08-20T00:30:17;98507.00;;;23.00
7389;BMP180;3735;50.136;11.062;2023-08-20T00:32:43;98501.00;;;23.00
7389;BMP180;3735;50.136;11.062;2023-08-20T00:35:08;98512.00;;;23.00
7389;BMP180;3735;50.136;11.062;2023-08-20T00:37:34;98511.00;;;23.00
7389;BMP180;3735;50.136;11.062;2023-08-20T00:40:02;98512.00;;;23.00
7389;BMP180;3735;50.136;11.062;2023-08-20T00:42:30;98508.00;;;23.00
7389;BMP180;3735;50.136;11.062;2023-08-20T00:44:56;98512.00;;;23.00
7389;BMP180;3735;50.136;11.062;2023-08-20T00:47:22;98506.00;;;23.00
7389;BMP180;3735;50.136;11.062;2023-08-20T00:49:48;98508.00;;;23.00
7389;BMP180;3735;50.136;11.062;2023-08-20T00:52:16;98515.00;;;23.00
7389;BMP180;3735;50.136;11.062;2023-08-20T00:54:45;98515.00;;;23.00
7389;BMP180;3735;50.136;11.062;2023-08-20T00:57:14;98513.00;;;23.00
7389;BMP180;3735;50.136;11.062;2023-08-20T00:59:41;98506.00;;;23.00
7389;BMP180;3735;50.136;11.062;2023-08-20T01:02:07;98517.00;;;22.90
7389;BMP180;3735;50.136;11.062;2023-08-20T01:04:34;98510.00;;;23.00
7389;BMP180;3735;50.136;11.062;2023-08-20T01:12:20;98517.00;;;22.80
7389;BMP180;3735;50.136;11.062;2023-08-20T01:14:46;98525.00;;;22.70
7389;BMP180;3735;50.136;11.062;2023-08-20T01:17:12;98527.00;;;22.70
7389;BMP180;3735;50.136;11.062;2023-08-20T01:19:38;98516.00;;;22.70
7389;BMP180;3735;50.136;11.062;2023-08-20T01:25:32;98516.00;;;22.60
7389;BMP180;3735;50.136;11.062;2023-08-20T01:28:29;98516.00;;;22.50
7389;BMP180;3735;50.136;11.062;2023-08-20T01:30:59;98515.00;;;22.40
7389;BMP180;3735;50.136;11.062;2023-08-20T01:33:25;98518.00;;;22.40
7389;BMP180;3735;50.136;11.062;2023-08-20T01:35:55;98523.00;;;22.40
7389;BMP180;3735;50.136;11.062;2023-08-20T01:38:21;98519.00;;;22.30
7389;BMP180;3735;50.136;11.062;2023-08-20T01:40:48;98525.00;;;22.30
7389;BMP180;3735;50.136;11.062;2023-08-20T01:43:15;98527.00;;;22.30
7389;BMP180;3735;50.136;11.062;2023-08-20T01:45:41;98521.00;;;22.30
7389;BMP180;3735;50.136;11.062;2023-08-20T01:48:07;98528.00;;;22.20
7389;BMP180;3735;50.136;11.062;2023-08-20T01:50:34;98520.00;;;22.20
7389;BMP180;3735;50.136;11.062;2023-08-20T01:53:01;98524.00;;;22.10
7389;BMP180;3735;50.136;11.062;2023-08-20T01:55:28;98529.00;;;22.00
7389;BMP180;3735;50.136;11.062;2023-08-20T01:57:53;98531.00;;;21.90
7389;BMP180;3735;50.136;11.062;2023-08-20T02:00:19;98536.00;;;21.90
7389;BMP180;3735;50.136;11.062;2023-08-20T02:02:45;98528.00;;;21.70
7389;BMP180;3735;50.136;11.062;2023-08-20T02:05:11;98541.00;;;21.60
7389;BMP180;3735;50.136;11.062;2023-08-20T02:07:37;98545.00;;;21.50
7389;BMP180;3735;50.136;11.062;2023-08-20T02:10:03;98545.00;;;21.40
7389;BMP180;3735;50.136;11.062;2023-08-20T02:12:29;98542.00;;;21.40
7389;BMP180;3735;50.136;11.062;2023-08-20T02:14:55;98539.00;;;21.40
7389;BMP180;3735;50.136;11.062;2023-08-20T02:17:21;98540.00;;;21.40
7389;BMP180;3735;50.136;11.062;2023-08-20T02:19:47;98547.00;;;21.40
7389;BMP180;3735;50.136;11.062;2023-08-20T02:22:12;98537.00;;;21.30
7389;BMP180;3735;50.136;11.062;2023-08-20T02:24:38;98540.00;;;21.20
7389;BMP180;3735;50.136;11.062;2023-08-20T02:27:04;98538.00;;;21.20
7389;BMP180;3735;50.136;11.062;2023-08-20T02:29:30;98542.00;;;21.20
7389;BMP180;3735;50.136;11.062;2023-08-20T02:31:55;98544.00;;;21.10
7389;BMP180;3735;50.136;11.062;2023-08-20T02:34:22;98542.00;;;21.10
7389;BMP180;3735;50.136;11.062;2023-08-20T02:36:48;98537.00;;;21.10
7389;BMP180;3735;50.136;11.062;2023-08-20T02:39:16;98544.00;;;21.10
7389;BMP180;3735;50.136;11.062;2023-08-20T02:41:42;98538.00;;;21.10
7389;BMP180;3735;50.136;11.062;2023-08-20T02:44:08;98540.00;;;21.10
7389;BMP180;3735;50.136;11.062;2023-08-20T02:46:34;98538.00;;;21.00
7389;BMP180;3735;50.136;11.062;2023-08-20T02:49:00;98542.00;;;20.90
7389;BMP180;3735;50.136;11.062;2023-08-20T02:51:26;98527.00;;;20.90
7389;BMP180;3735;50.136;11.062;2023-08-20T02:53:52;98530.00;;;20.80
7389;BMP180;3735;50.136;11.062;2023-08-20T02:56:18;98543.00;;;20.80
7389;BMP180;3735;50.136;11.062;2023-08-20T02:58:44;98540.00;;;20.70
7389;BMP180;3735;50.136;11.062;2023-08-20T03:01:23;98541.00;;;20.60
7389;BMP180;3735;50.136;11.062;2023-08-20T03:03:49;98542.00;;;20.50
7389;BMP180;3735;50.136;11.062;2023-08-20T03:06:15;98540.00;;;20.50
7389;BMP180;3735;50.136;11.062;2023-08-20T03:08:41;98542.00;;;20.50
7389;BMP180;3735;50.136;11.062;2023-08-20T03:11:06;98544.00;;;20.50
7389;BMP180;3735;50.136;11.062;2023-08-20T03:13:33;98544.00;;;20.40
7389;BMP180;3735;50.136;11.062;2023-08-20T03:15:58;98536.00;;;20.40
7389;BMP180;3735;50.136;11.062;2023-08-20T03:18:24;98537.00;;;20.40
7389;BMP180;3735;50.136;11.062;2023-08-20T03:20:50;98536.00;;;20.30
7389;BMP180;3735;50.136;11.062;2023-08-20T03:23:15;98543.00;;;20.30
7389;BMP180;3735;50.136;11.062;2023-08-20T03:25:41;98548.00;;;20.30
7389;BMP180;3735;50.136;11.062;2023-08-20T03:28:07;98546.00;;;20.40
7389;BMP180;3735;50.136;11.062;2023-08-20T03:30:33;98547.00;;;20.30
7389;BMP180;3735;50.136;11.062;2023-08-20T03:32:59;98538.00;;;20.30
7389;BMP180;3735;50.136;11.062;2023-08-20T03:35:25;98535.00;;;20.30
7389;BMP180;3735;50.136;11.062;2023-08-20T03:37:50;98539.00;;;20.20
7389;BMP180;3735;50.136;11.062;2023-08-20T03:40:16;98535.00;;;20.20
7389;BMP180;3735;50.136;11.062;2023-08-20T03:42:44;98543.00;;;20.10
7389;BMP180;3735;50.136;11.062;2023-08-20T03:45:09;98553.00;;;20.10
7389;BMP180;3735;50.136;11.062;2023-08-20T03:47:35;98550.00;;;20.20
7389;BMP180;3735;50.136;11.062;2023-08-20T03:50:03;98539.00;;;20.20
7389;BMP180;3735;50.136;11.062;2023-08-20T03:52:29;98538.00;;;20.10
7389;BMP180;3735;50.136;11.062;2023-08-20T03:54:55;98551.00;;;20.10
7389;BMP180;3735;50.136;11.062;2023-08-20T03:57:21;98546.00;;;20.10
7389;BMP180;3735;50.136;11.062;2023-08-20T03:59:47;98556.00;;;20.10
7389;BMP180;3735;50.136;11.062;2023-08-20T04:02:14;98549.00;;;20.10
7389;BMP180;3735;50.136;11.062;2023-08-20T04:04:40;98552.00;;;20.10
7389;BMP180;3735;50.136;11.062;2023-08-20T04:07:06;98561.00;;;20.10
7389;BMP180;3735;50.136;11.062;2023-08-20T04:09:35;98550.00;;;20.10
7389;BMP180;3735;50.136;11.062;2023-08-20T04:12:03;98557.00;;;20.10
7389;BMP180;3735;50.136;11.062;2023-08-20T04:14:29;98552.00;;;20.10
7389;BMP180;3735;50.136;11.062;2023-08-20T04:16:55;98555.00;;;20.20
7389;BMP180;3735;50.136;11.062;2023-08-20T04:19:20;98549.00;;;20.20
7389;BMP180;3735;50.136;11.062;2023-08-20T04:21:46;98554.00;;;20.20
7389;BMP180;3735;50.136;11.062;2023-08-20T04:24:12;98562.00;;;20.20
7389;BMP180;3735;50.136;11.062;2023-08-20T04:26:38;98570.00;;;20.20
7389;BMP180;3735;50.136;11.062;2023-08-20T04:29:03;98569.00;;;20.30
7389;BMP180;3735;50.136;11.062;2023-08-20T04:31:29;98563.00;;;20.30
7389;BMP180;3735;50.136;11.062;2023-08-20T04:33:55;98566.00;;;20.30
7389;BMP180;3735;50.136;11.062;2023-08-20T04:36:20;98563.00;;;20.40
7389;BMP180;3735;50.136;11.062;2023-08-20T04:38:46;98565.00;;;20.40
7389;BMP180;3735;50.136;11.062;2023-08-20T04:41:12;98565.00;;;20.40
7389;BMP180;3735;50.136;11.062;2023-08-20T04:43:37;98568.00;;;20.40
7389;BMP180;3735;50.136;11.062;2023-08-20T04:46:03;98562.00;;;20.40
7389;BMP180;3735;50.136;11.062;2023-08-20T04:48:29;98564.00;;;20.50
7389;BMP180;3735;50.136;11.062;2023-08-20T04:50:55;98563.00;;;20.70
7389;BMP180;3735;50.136;11.062;2023-08-20T04:53:20;98567.00;;;21.00
7389;BMP180;3735;50.136;11.062;2023-08-20T04:55:46;98556.00;;;21.30
7389;BMP180;3735;50.136;11.062;2023-08-20T04:58:12;98560.00;;;21.70
7389;BMP180;3735;50.136;11.062;2023-08-20T05:00:37;98559.00;;;21.80
7389;BMP180;3735;50.136;11.062;2023-08-20T05:03:04;98555.00;;;21.90
7389;BMP180;3735;50.136;11.062;2023-08-20T05:05:29;98567.00;;;22.00
7389;BMP180;3735;50.136;11.062;2023-08-20T05:07:55;98566.00;;;22.40
7389;BMP180;3735;50.136;11.062;2023-08-20T05:10:21;98554.00;;;23.00
7389;BMP180;3735;50.136;11.062;2023-08-20T05:12:46;98572.00;;;23.50
7389;BMP180;3735;50.136;11.062;2023-08-20T05:15:12;98566.00;;;23.90
7389;BMP180;3735;50.136;11.062;2023-08-20T05:17:38;98563.00;;;24.40
7389;BMP180;3735;50.136;11.062;2023-08-20T05:20:05;98558.00;;;24.80
7389;BMP180;3735;50.136;11.062;2023-08-20T05:22:31;98556.00;;;25.10
7389;BMP180;3735;50.136;11.062;2023-08-20T05:24:57;98553.00;;;25.50
7389;BMP180;3735;50.136;11.062;2023-08-20T05:27:23;98553.00;;;25.80
7389;BMP180;3735;50.136;11.062;2023-08-20T05:29:48;98561.00;;;26.00
7389;BMP180;3735;50.136;11.062;2023-08-20T05:32:14;98563.00;;;26.40
7389;BMP180;3735;50.136;11.062;2023-08-20T05:34:42;98569.00;;;26.50
7389;BMP180;3735;50.136;11.062;2023-08-20T05:37:07;98563.00;;;26.80
7389;BMP180;3735;50.136;11.062;2023-08-20T05:39:42;98578.00;;;27.30
7389;BMP180;3735;50.136;11.062;2023-08-20T05:42:08;98584.00;;;27.20
7389;BMP180;3735;50.136;11.062;2023-08-20T05:44:34;98575.00;;;27.30
7389;BMP180;3735;50.136;11.062;2023-08-20T05:47:00;98574.00;;;27.60
7389;BMP180;3735;50.136;11.062;2023-08-20T05:49:27;98576.00;;;27.70
7389;BMP180;3735;50.136;11.062;2023-08-20T05:51:53;98586.00;;;27.50
7389;BMP180;3735;50.136;11.062;2023-08-20T05:54:19;98578.00;;;27.10
7389;BMP180;3735;50.136;11.062;2023-08-20T05:56:45;98582.00;;;26.70
7389;BMP180;3735;50.136;11.062;2023-08-20T05:59:10;98572.00;;;26.80
7389;BMP180;3735;50.136;11.062;2023-08-20T06:01:36;98572.00;;;27.40
7389;BMP180;3735;50.136;11.062;2023-08-20T06:04:02;98580.00;;;28.20
7389;BMP180;3735;50.136;11.062;2023-08-20T06:06:28;98576.00;;;28.80
7389;BMP180;3735;50.136;11.062;2023-08-20T06:08:55;98582.00;;;29.20
7389;BMP180;3735;50.136;11.062;2023-08-20T06:11:20;98584.00;;;29.80
7389;BMP180;3735;50.136;11.062;2023-08-20T06:13:46;98584.00;;;30.20
7389;BMP180;3735;50.136;11.062;2023-08-20T06:16:12;98586.00;;;30.70
7389;BMP180;3735;50.136;11.062;2023-08-20T06:18:38;98590.00;;;30.90
7389;BMP180;3735;50.136;11.062;2023-08-20T06:21:04;98596.00;;;31.50
7389;BMP180;3735;50.136;11.062;2023-08-20T06:23:30;98601.00;;;31.70
7389;BMP180;3735;50.136;11.062;2023-08-20T06:25:55;98602.00;;;31.70
7389;BMP180;3735;50.136;11.062;2023-08-20T06:28:21;98602.00;;;32.10
7389;BMP180;3735;50.136;11.062;2023-08-20T06:30:47;98613.00;;;32.40
7389;BMP180;3735;50.136;11.062;2023-08-20T06:33:13;98618.00;;;33.00
7389;BMP180;3735;50.136;11.062;2023-08-20T06:35:39;98616.00;;;33.00
7389;BMP180;3735;50.136;11.062;2023-08-20T06:38:07;98619.00;;;33.10
7389;BMP180;3735;50.136;11.062;2023-08-20T06:40:33;98617.00;;;33.00
7389;BMP180;3735;50.136;11.062;2023-08-20T06:42:59;98615.00;;;32.90
7389;BMP180;3735;50.136;11.062;2023-08-20T06:45:25;98621.00;;;33.10
7389;BMP180;3735;50.136;11.062;2023-08-20T06:47:50;98614.00;;;33.20
7389;BMP180;3735;50.136;11.062;2023-08-20T06:50:16;98614.00;;;33.70
7389;BMP180;3735;50.136;11.062;2023-08-20T06:52:43;98615.00;;;34.00
7389;BMP180;3735;50.136;11.062;2023-08-20T06:55:09;98608.00;;;34.20
7389;BMP180;3735;50.136;11.062;2023-08-20T06:57:34;98614.00;;;34.30
7389;BMP180;3735;50.136;11.062;2023-08-20T07:00:04;98612.00;;;34.60
7389;BMP180;3735;50.136;11.062;2023-08-20T07:02:30;98616.00;;;34.40
7389;BMP180;3735;50.136;11.062;2023-08-20T07:04:56;98618.00;;;34.30
7389;BMP180;3735;50.136;11.062;2023-08-20T07:07:22;98631.00;;;33.80
7389;BMP180;3735;50.136;11.062;2023-08-20T07:09:48;98626.00;;;33.90
7389;BMP180;3735;50.136;11.062;2023-08-20T07:12:14;98630.00;;;34.50
7389;BMP180;3735;50.136;11.062;2023-08-20T07:14:39;98630.00;;;34.80
7389;BMP180;3735;50.136;11.062;2023-08-20T07:17:05;98621.00;;;34.80
7389;BMP180;3735;50.136;11.062;2023-08-20T07:19:31;98634.00;;;35.00
7389;BMP180;3735;50.136;11.062;2023-08-20T07:21:57;98643.00;;;35.00
7389;BMP180;3735;50.136;11.062;2023-08-20T07:24:22;98649.00;;;34.80
7389;BMP180;3735;50.136;11.062;2023-08-20T07:26:52;98652.00;;;35.30
7389;BMP180;3735;50.136;11.062;2023-08-20T07:29:18;98652.00;;;35.20
7389;BMP180;3735;50.136;11.062;2023-08-20T07:31:44;98656.00;;;34.70
7389;BMP180;3735;50.136;11.062;2023-08-20T07:34:09;98656.00;;;35.00
7389;BMP180;3735;50.136;11.062;2023-08-20T07:36:35;98662.00;;;35.30
7389;BMP180;3735;50.136;11.062;2023-08-20T07:39:01;98667.00;;;35.90
7389;BMP180;3735;50.136;11.062;2023-08-20T07:41:27;98668.00;;;36.30
7389;BMP180;3735;50.136;11.062;2023-08-20T07:43:52;98667.00;;;36.20
7389;BMP180;3735;50.136;11.062;2023-08-20T07:46:19;98669.00;;;35.00
7389;BMP180;3735;50.136;11.062;2023-08-20T07:48:45;98667.00;;;34.30
7389;BMP180;3735;50.136;11.062;2023-08-20T07:51:12;98671.00;;;34.20
7389;BMP180;3735;50.136;11.062;2023-08-20T07:53:38;98669.00;;;33.60
7389;BMP180;3735;50.136;11.062;2023-08-20T07:56:04;98671.00;;;32.90
7389;BMP180;3735;50.136;11.062;2023-08-20T07:58:29;98670.00;;;32.40
7389;BMP180;3735;50.136;11.062;2023-08-20T08:00:56;98681.00;;;32.30
7389;BMP180;3735;50.136;11.062;2023-08-20T08:03:21;98668.00;;;32.40
7389;BMP180;3735;50.136;11.062;2023-08-20T08:05:48;98672.00;;;33.20
7389;BMP180;3735;50.136;11.062;2023-08-20T08:08:18;98676.00;;;33.40
7389;BMP180;3735;50.136;11.062;2023-08-20T08:10:47;98680.00;;;33.50
7389;BMP180;3735;50.136;11.062;2023-08-20T08:13:17;98679.00;;;33.50
7389;BMP180;3735;50.136;11.062;2023-08-20T08:15:43;98683.00;;;34.50
7389;BMP180;3735;50.136;11.062;2023-08-20T08:18:08;98683.00;;;33.90
7389;BMP180;3735;50.136;11.062;2023-08-20T08:20:34;98688.00;;;33.70
7389;BMP180;3735;50.136;11.062;2023-08-20T08:23:00;98692.00;;;32.80
7389;BMP180;3735;50.136;11.062;2023-08-20T08:25:27;98698.00;;;32.30
7389;BMP180;3735;50.136;11.062;2023-08-20T08:27:53;98695.00;;;32.60
7389;BMP180;3735;50.136;11.062;2023-08-20T08:30:19;98700.00;;;32.70
7389;BMP180;3735;50.136;11.062;2023-08-20T08:32:45;98691.00;;;32.80
7389;BMP180;3735;50.136;11.062;2023-08-20T08:35:11;98699.00;;;32.40
7389;BMP180;3735;50.136;11.062;2023-08-20T08:37:37;98695.00;;;32.50
7389;BMP180;3735;50.136;11.062;2023-08-20T08:40:03;98692.00;;;31.80
7389;BMP180;3735;50.136;11.062;2023-08-20T08:42:35;98695.00;;;30.90
7389;BMP180;3735;50.136;11.062;2023-08-20T08:45:02;98698.00;;;30.40
7389;BMP180;3735;50.136;11.062;2023-08-20T08:47:29;98698.00;;;30.00
7389;BMP180;3735;50.136;11.062;2023-08-20T08:49:56;98694.00;;;30.10
7389;BMP180;3735;50.136;11.062;2023-08-20T08:52:26;98694.00;;;31.50
7389;BMP180;3735;50.136;11.062;2023-08-20T08:54:52;98696.00;;;33.20
7389;BMP180;3735;50.136;11.062;2023-08-20T08:57:19;98690.00;;;34.40
7389;BMP180;3735;50.136;11.062;2023-08-20T08:59:45;98701.00;;;36.10
7389;BMP180;3735;50.136;11.062;2023-08-20T09:02:12;98698.00;;;37.10
7389;BMP180;3735;50.136;11.062;2023-08-20T09:04:42;98709.00;;;37.40
7389;BMP180;3735;50.136;11.062;2023-08-20T09:07:13;98714.00;;;36.30
7389;BMP180;3735;50.136;11.062;2023-08-20T09:09:45;98716.00;;;35.00
7389;BMP180;3735;50.136;11.062;2023-08-20T09:12:19;98713.00;;;33.50
7389;BMP180;3735;50.136;11.062;2023-08-20T09:14:48;98714.00;;;33.20
7389;BMP180;3735;50.136;11.062;2023-08-20T09:17:15;98710.00;;;32.60
7389;BMP180;3735;50.136;11.062;2023-08-20T09:19:44;98707.00;;;31.80
7389;BMP180;3735;50.136;11.062;2023-08-20T09:22:12;98713.00;;;31.50
7389;BMP180;3735;50.136;11.062;2023-08-20T09:24:47;98705.00;;;32.00
7389;BMP180;3735;50.136;11.062;2023-08-20T09:27:13;98706.00;;;33.50
7389;BMP180;3735;50.136;11.062;2023-08-20T09:32:26;98712.00;;;36.50
7389;BMP180;3735;50.136;11.062;2023-08-20T09:34:55;98700.00;;;37.30
7389;BMP180;3735;50.136;11.062;2023-08-20T09:37:23;98700.00;;;37.60
7389;BMP180;3735;50.136;11.062;2023-08-20T09:39:49;98700.00;;;38.10
7389;BMP180;3735;50.136;11.062;2023-08-20T09:42:16;98695.00;;;38.30
7389;BMP180;3735;50.136;11.062;2023-08-20T09:44:45;98700.00;;;38.50
7389;BMP180;3735;50.136;11.062;2023-08-20T09:47:16;98697.00;;;37.60
7389;BMP180;3735;50.136;11.062;2023-08-20T09:49:47;98702.00;;;38.40
7389;BMP180;3735;50.136;11.062;2023-08-20T09:52:26;98699.00;;;37.90
7389;BMP180;3735;50.136;11.062;2023-08-20T09:57:40;98696.00;;;38.90
7389;BMP180;3735;50.136;11.062;2023-08-20T10:00:09;98695.00;;;39.10
7389;BMP180;3735;50.136;11.062;2023-08-20T10:02:39;98700.00;;;39.30
7389;BMP180;3735;50.136;11.062;2023-08-20T10:05:07;98696.00;;;39.00
7389;BMP180;3735;50.136;11.062;2023-08-20T10:07:34;98704.00;;;39.20
7389;BMP180;3735;50.136;11.062;2023-08-20T10:10:05;98703.00;;;38.80
7389;BMP180;3735;50.136;11.062;2023-08-20T10:12:32;98712.00;;;39.10
7389;BMP180;3735;50.136;11.062;2023-08-20T10:15:00;98705.00;;;39.10
7389;BMP180;3735;50.136;11.062;2023-08-20T10:17:29;98704.00;;;39.10
7389;BMP180;3735;50.136;11.062;2023-08-20T10:19:58;98712.00;;;39.00
7389;BMP180;3735;50.136;11.062;2023-08-20T10:22:44;98705.00;;;39.40
7389;BMP180;3735;50.136;11.062;2023-08-20T10:25:31;98704.00;;;39.70
7389;BMP180;3735;50.136;11.062;2023-08-20T10:28:31;98697.00;;;39.80
7389;BMP180;3735;50.136;11.062;2023-08-20T10:31:09;98709.00;;;39.90
7389;BMP180;3735;50.136;11.062;2023-08-20T10:33:48;98703.00;;;39.20
7389;BMP180;3735;50.136;11.062;2023-08-20T10:36:18;98697.00;;;38.10
7389;BMP180;3735;50.136;11.062;2023-08-20T10:38:49;98702.00;;;37.80
7389;BMP180;3735;50.136;11.062;2023-08-20T10:41:16;98692.00;;;37.90
7389;BMP180;3735;50.136;11.062;2023-08-20T10:43:49;98689.00;;;38.50
7389;BMP180;3735;50.136;11.062;2023-08-20T10:46:20;98687.00;;;39.90
7389;BMP180;3735;50.136;11.062;2023-08-20T10:48:54;98695.00;;;40.00
7389;BMP180;3735;50.136;11.062;2023-08-20T10:51:37;98693.00;;;40.50
7389;BMP180;3735;50.136;11.062;2023-08-20T10:54:08;98685.00;;;40.80
7389;BMP180;3735;50.136;11.062;2023-08-20T10:56:45;98692.00;;;41.10
7389;BMP180;3735;50.136;11.062;2023-08-20T10:59:25;98694.00;;;40.90
7389;BMP180;3735;50.136;11.062;2023-08-20T11:01:56;98686.00;;;41.50
7389;BMP180;3735;50.136;11.062;2023-08-20T11:04:30;98690.00;;;41.20
7389;BMP180;3735;50.136;11.062;2023-08-20T11:07:00;98693.00;;;40.60
7389;BMP180;3735;50.136;11.062;2023-08-20T11:09:29;98696.00;;;40.50
7389;BMP180;3735;50.136;11.062;2023-08-20T11:11:57;98689.00;;;38.40
7389;BMP180;3735;50.136;11.062;2023-08-20T11:14:24;98688.00;;;39.40
7389;BMP180;3735;50.136;11.062;2023-08-20T11:16:50;98690.00;;;39.70
7389;BMP180;3735;50.136;11.062;2023-08-20T11:19:21;98690.00;;;40.40
7389;BMP180;3735;50.136;11.062;2023-08-20T11:21:50;98691.00;;;40.80
7389;BMP180;3735;50.136;11.062;2023-08-20T11:24:17;98691.00;;;40.80
7389;BMP180;3735;50.136;11.062;2023-08-20T11:26:44;98687.00;;;41.30
7389;BMP180;3735;50.136;11.062;2023-08-20T11:29:12;98696.00;;;42.10
7389;BMP180;3735;50.136;11.062;2023-08-20T11:31:38;98694.00;;;41.80
7389;BMP180;3735;50.136;11.062;2023-08-20T11:34:06;98701.00;;;42.10
7389;BMP180;3735;50.136;11.062;2023-08-20T11:36:33;98688.00;;;42.20
7389;BMP180;3735;50.136;11.062;2023-08-20T11:39:00;98690.00;;;41.50
7389;BMP180;3735;50.136;11.062;2023-08-20T11:41:26;98684.00;;;41.70
7389;BMP180;3735;50.136;11.062;2023-08-20T11:43:53;98693.00;;;42.80
7389;BMP180;3735;50.136;11.062;2023-08-20T11:46:23;98684.00;;;42.10
7389;BMP180;3735;50.136;11.062;2023-08-20T11:49:03;98691.00;;;42.40
7389;BMP180;3735;50.136;11.062;2023-08-20T11:51:34;98685.00;;;42.10
7389;BMP180;3735;50.136;11.062;2023-08-20T11:54:00;98687.00;;;42.40
7389;BMP180;3735;50.136;11.062;2023-08-20T11:56:27;98678.00;;;42.50
7389;BMP180;3735;50.136;11.062;2023-08-20T11:58:58;98678.00;;;42.60
7389;BMP180;3735;50.136;11.062;2023-08-20T12:01:24;98686.00;;;42.60
7389;BMP180;3735;50.136;11.062;2023-08-20T12:03:50;98682.00;;;42.50
7389;BMP180;3735;50.136;11.062;2023-08-20T12:06:22;98685.00;;;41.90
7389;BMP180;3735;50.136;11.062;2023-08-20T12:08:54;98676.00;;;41.10
7389;BMP180;3735;50.136;11.062;2023-08-20T12:11:30;98681.00;;;41.60
7389;BMP180;3735;50.136;11.062;2023-08-20T12:13:57;98690.00;;;42.20
7389;BMP180;3735;50.136;11.062;2023-08-20T12:16:23;98682.00;;;41.20
7389;BMP180;3735;50.136;11.062;2023-08-20T12:18:50;98672.00;;;38.70
7389;BMP180;3735;50.136;11.062;2023-08-20T12:21:16;98672.00;;;38.30
7389;BMP180;3735;50.136;11.062;2023-08-20T12:23:43;98675.00;;;39.30
7389;BMP180;3735;50.136;11.062;2023-08-20T12:26:08;98672.00;;;39.30
7389;BMP180;3735;50.136;11.062;2023-08-20T12:28:34;98674.00;;;39.10
7389;BMP180;3735;50.136;11.062;2023-08-20T12:31:00;98661.00;;;38.40
7389;BMP180;3735;50.136;11.062;2023-08-20T12:33:26;98671.00;;;38.60
7389;BMP180;3735;50.136;11.062;2023-08-20T12:35:56;98670.00;;;39.20
7389;BMP180;3735;50.136;11.062;2023-08-20T12:38:22;98665.00;;;38.60
7389;BMP180;3735;50.136;11.062;2023-08-20T12:40:48;98665.00;;;38.00
7389;BMP180;3735;50.136;11.062;2023-08-20T12:43:14;98655.00;;;37.90
7389;BMP180;3735;50.136;11.062;2023-08-20T12:45:39;98656.00;;;38.00
7389;BMP180;3735;50.136;11.062;2023-08-20T12:48:06;98657.00;;;38.00
7389;BMP180;3735;50.136;11.062;2023-08-20T12:50:33;98652.00;;;38.10
7389;BMP180;3735;50.136;11.062;2023-08-20T12:52:59;98647.00;;;38.70
7389;BMP180;3735;50.136;11.062;2023-08-20T12:55:24;98650.00;;;39.10
7389;BMP180;3735;50.136;11.062;2023-08-20T12:57:58;98646.00;;;39.40
7389;BMP180;3735;50.136;11.062;2023-08-20T13:00:25;98648.00;;;40.00
7389;BMP180;3735;50.136;11.062;2023-08-20T13:02:52;98644.00;;;40.50
7389;BMP180;3735;50.136;11.062;2023-08-20T13:05:18;98639.00;;;41.00
7389;BMP180;3735;50.136;11.062;2023-08-20T13:07:45;98632.00;;;40.80
7389;BMP180;3735;50.136;11.062;2023-08-20T13:10:12;98641.00;;;40.90
7389;BMP180;3735;50.136;11.062;2023-08-20T13:12:41;98638.00;;;38.80
7389;BMP180;3735;50.136;11.062;2023-08-20T13:15:08;98630.00;;;40.40
7389;BMP180;3735;50.136;11.062;2023-08-20T13:17:37;98638.00;;;41.00
7389;BMP180;3735;50.136;11.062;2023-08-20T13:20:05;98634.00;;;40.40
7389;BMP180;3735;50.136;11.062;2023-08-20T13:22:31;98630.00;;;39.80
7389;BMP180;3735;50.136;11.062;2023-08-20T13:24:57;98632.00;;;40.00
7389;BMP180;3735;50.136;11.062;2023-08-20T13:27:22;98631.00;;;38.50
7389;BMP180;3735;50.136;11.062;2023-08-20T13:29:49;98628.00;;;39.30
7389;BMP180;3735;50.136;11.062;2023-08-20T13:32:15;98634.00;;;39.60
7389;BMP180;3735;50.136;11.062;2023-08-20T13:34:41;98639.00;;;38.60
7389;BMP180;3735;50.136;11.062;2023-08-20T13:37:07;98632.00;;;38.20
7389;BMP180;3735;50.136;11.062;2023-08-20T13:39:32;98632.00;;;38.90
7389;BMP180;3735;50.136;11.062;2023-08-20T13:41:58;98637.00;;;39.00
7389;BMP180;3735;50.136;11.062;2023-08-20T13:44:24;98618.00;;;39.20
7389;BMP180;3735;50.136;11.062;2023-08-20T13:46:50;98625.00;;;39.30
7389;BMP180;3735;50.136;11.062;2023-08-20T13:49:15;98631.00;;;38.50
7389;BMP180;3735;50.136;11.062;2023-08-20T13:51:41;98626.00;;;39.40
7389;BMP180;3735;50.136;11.062;2023-08-20T13:54:07;98618.00;;;38.20
7389;BMP180;3735;50.136;11.062;2023-08-20T13:56:33;98626.00;;;38.90
7389;BMP180;3735;50.136;11.062;2023-08-20T13:58:59;98625.00;;;39.10
7389;BMP180;3735;50.136;11.062;2023-08-20T14:01:25;98625.00;;;39.50
7389;BMP180;3735;50.136;11.062;2023-08-20T14:03:52;98627.00;;;38.80
7389;BMP180;3735;50.136;11.062;2023-08-20T14:06:17;98624.00;;;38.90
7389;BMP180;3735;50.136;11.062;2023-08-20T14:08:43;98620.00;;;38.10
7389;BMP180;3735;50.136;11.062;2023-08-20T14:11:09;98616.00;;;38.60
7389;BMP180;3735;50.136;11.062;2023-08-20T14:13:35;98612.00;;;37.80
7389;BMP180;3735;50.136;11.062;2023-08-20T14:16:01;98622.00;;;37.50
7389;BMP180;3735;50.136;11.062;2023-08-20T14:18:28;98619.00;;;37.40
7389;BMP180;3735;50.136;11.062;2023-08-20T14:20:54;98614.00;;;37.40
7389;BMP180;3735;50.136;11.062;2023-08-20T14:23:19;98612.00;;;38.00
7389;BMP180;3735;50.136;11.062;2023-08-20T14:25:45;98604.00;;;38.90
7389;BMP180;3735;50.136;11.062;2023-08-20T14:28:11;98602.00;;;39.50
7389;BMP180;3735;50.136;11.062;2023-08-20T14:30:38;98605.00;;;39.90
7389;BMP180;3735;50.136;11.062;2023-08-20T14:33:05;98606.00;;;39.90
7389;BMP180;3735;50.136;11.062;2023-08-20T14:35:32;98598.00;;;40.10